Time;durP1;ratioP1;P1;durP2;ratioP2;P2;SDS_P1;SDS_P2;PMS_P1;PMS_P2;Temp;Humidity;BMP_temperature;BMP_pressure;BME280_temperature;BME280_humidity;BME280_pressure;Samples;Min_cycle;Max_cycle;Signal;HPM_P1;HPM_P2
2023/01/19 00:02:27;;;;;;;1.67;1.58;;;;;;;3.97;93.77;98102.41;5115514;28;20280;-67
2023/01/19 00:04:57;;;;;;;3.85;3.25;;;;;;;3.97;93.92;98102.41;5115788;28;20442;-67
2023/01/19 00:07:26;;;;;;;1.35;1.25;;;;;;;3.95;93.87;98094.00;5115687;28;20561;-67
2023/01/19 00:09:55;;;;;;;4.03;2.67;;;;;;;3.93;93.93;98077.19;5115154;28;20040;-67
2023/01/19 00:12:23;;;;;;;2.43;2.23;;;;;;;3.92;93.91;98088.13;5115384;28;20493;-67
2023/01/19 00:14:52;;;;;;;4.47;2.57;;;;;;;3.90;94.11;98090.66;5115245;28;20050;-67
2023/01/19 00:17:21;;;;;;;3.97;2.72;;;;;;;3.90;93.81;98087.28;5115571;28;20298;-66
2023/01/19 00:19:51;;;;;;;2.20;2.00;;;;;;;3.90;94.26;98085.59;5115127;28;20113;-66
2023/01/19 00:22:20;;;;;;;2.17;2.03;;;;;;;3.88;94.08;98089.81;5115312;28;20401;-66
2023/01/19 00:24:49;;;;;;;5.20;4.70;;;;;;;3.91;94.22;98089.78;5115322;28;20047;-67
2023/01/19 00:27:18;;;;;;;6.33;2.73;;;;;;;3.87;94.21;98090.63;5115035;27;20067;-66
2023/01/19 00:29:47;;;;;;;1.88;1.77;;;;;;;3.88;94.02;98099.06;5115295;27;20318;-66
2023/01/19 00:32:19;;;;;;;2.63;1.87;;;;;;;3.85;93.75;98087.28;5114975;28;20089;-67
2023/01/19 00:34:51;;;;;;;1.95;1.85;;;;;;;3.84;94.05;98085.59;5114868;28;20280;-67
2023/01/19 00:37:21;;;;;;;3.25;3.00;;;;;;;3.86;94.22;98073.81;5115160;28;20044;-67
2023/01/19 00:39:50;;;;;;;5.43;4.25;;;;;;;3.85;94.03;98071.28;5114773;28;20047;-67
2023/01/19 00:44:57;;;;;;;2.30;2.10;;;;;;;3.82;94.23;98073.81;5114973;28;20558;-67
2023/01/19 00:47:26;;;;;;;1.77;1.67;;;;;;;3.82;94.40;98084.75;5114694;28;20040;-67
2023/01/19 00:49:55;;;;;;;1.20;1.13;;;;;;;3.81;94.20;98090.66;5114586;28;20044;-67
2023/01/19 00:52:25;;;;;;;1.60;1.33;;;;;;;3.81;94.29;98088.13;5114903;28;20040;-67
2023/01/19 00:54:54;;;;;;;4.65;1.92;;;;;;;3.82;93.81;98082.22;5114596;28;20096;-67
2023/01/19 00:57:22;;;;;;;3.20;2.13;;;;;;;3.82;93.93;98089.78;5114448;28;20043;-67
2023/01/19 00:59:51;;;;;;;1.48;1.38;;;;;;;3.82;94.29;98092.31;5114404;28;20122;-67
2023/01/19 01:02:20;;;;;;;3.50;2.50;;;;;;;3.84;94.18;98095.69;5114777;28;20051;-67
2023/01/19 01:04:53;;;;;;;1.98;1.77;;;;;;;3.86;94.43;98099.03;5114709;28;20047;-67
2023/01/19 01:07:22;;;;;;;2.17;1.90;;;;;;;3.88;94.06;98101.56;5114298;28;20534;-67
2023/01/19 01:09:53;;;;;;;1.55;1.45;;;;;;;3.88;94.20;98109.16;5114364;28;20044;-67
2023/01/19 01:12:21;;;;;;;4.35;3.25;;;;;;;3.87;93.88;98107.44;5114613;28;20097;-67
2023/01/19 01:14:51;;;;;;;2.72;2.53;;;;;;;3.87;94.37;98115.88;5115053;28;20044;-67
2023/01/19 01:17:23;;;;;;;1.25;1.20;;;;;;;3.84;94.13;98110.00;5114150;28;20039;-67
2023/01/19 01:19:53;;;;;;;3.25;2.90;;;;;;;3.83;94.15;98113.34;5114278;28;20052;-67
2023/01/19 01:22:21;;;;;;;5.83;2.40;;;;;;;3.82;94.22;98102.41;5114190;28;20035;-67
2023/01/19 01:24:52;;;;;;;1.52;1.30;;;;;;;3.84;94.29;98104.94;5114513;28;20485;-67
2023/01/19 01:27:21;;;;;;;1.45;1.35;;;;;;;3.85;94.21;98112.50;5114326;28;20057;-67
2023/01/19 01:29:49;;;;;;;1.52;1.15;;;;;;;3.86;93.93;98108.31;5114067;28;20039;-68
2023/01/19 01:32:18;;;;;;;2.17;1.93;;;;;;;3.87;94.58;98110.81;5114371;28;20035;-67
2023/01/19 01:34:47;;;;;;;3.03;1.77;;;;;;;3.87;94.19;98109.97;5113486;28;20127;-67
2023/01/19 01:37:18;;;;;;;2.33;1.73;;;;;;;3.87;94.25;98115.03;5114171;28;20040;-67
2023/01/19 01:39:48;;;;;;;5.57;2.38;;;;;;;3.86;94.44;98106.59;5114004;28;20089;-67
2023/01/19 01:42:20;;;;;;;2.93;2.73;;;;;;;3.87;94.50;98105.78;5113878;28;20131;-67
2023/01/19 01:44:52;;;;;;;2.72;2.00;;;;;;;3.86;94.52;98108.31;5114249;28;20047;-67
2023/01/19 01:47:28;;;;;;;2.42;2.28;;;;;;;3.87;94.19;98110.81;5113849;28;20047;-67
2023/01/19 01:50:05;;;;;;;4.13;2.97;;;;;;;3.86;94.36;98108.31;5113874;28;20086;-67
2023/01/19 01:52:38;;;;;;;1.88;1.75;;;;;;;3.87;94.22;98110.81;5113868;28;20130;-67
2023/01/19 01:55:10;;;;;;;2.53;2.20;;;;;;;3.85;94.58;98112.50;5114181;28;20071;-67
2023/01/19 01:57:50;;;;;;;3.55;2.55;;;;;;;3.84;94.18;98110.81;5113731;28;20043;-67
2023/01/19 02:00:19;;;;;;;1.42;1.33;;;;;;;3.83;94.50;98109.16;5114111;28;20481;-67
2023/01/19 02:02:50;;;;;;;2.13;1.98;;;;;;;3.80;94.28;98114.19;5114346;28;20077;-67
2023/01/19 02:05:23;;;;;;;2.05;1.95;;;;;;;3.82;94.54;98106.59;5113746;28;20044;-67
2023/01/19 02:13:19;;;;;;;3.92;2.13;;;;;;;3.86;94.73;98124.28;5113684;28;20040;-67
2023/01/19 02:15:50;;;;;;;3.50;3.20;;;;;;;3.79;94.41;98111.69;5113648;28;20527;-67
2023/01/19 02:18:20;;;;;;;1.55;1.45;;;;;;;3.87;94.82;98125.97;5113804;28;20077;-67
2023/01/19 02:20:59;;;;;;;2.30;2.10;;;;;;;3.88;94.38;98124.28;5113496;28;20050;-67
2023/01/19 02:23:39;;;;;;;3.42;2.20;;;;;;;3.89;94.36;98131.00;5113953;28;20067;-67
2023/01/19 02:26:10;;;;;;;2.88;2.50;;;;;;;3.89;94.32;98133.53;5113852;28;20059;-67
2023/01/19 02:28:43;;;;;;;2.00;1.90;;;;;;;3.88;94.37;98131.84;5113800;28;20065;-67
2023/01/19 02:31:13;;;;;;;2.50;1.67;;;;;;;3.87;94.30;98135.22;5113736;28;20420;-67
2023/01/19 02:33:44;;;;;;;3.90;2.42;;;;;;;3.84;94.20;98136.03;5113854;28;20489;-67
2023/01/19 02:36:15;;;;;;;1.17;1.08;;;;;;;3.86;94.63;98133.53;5113433;28;20067;-67
2023/01/19 02:38:48;;;;;;;1.67;1.02;;;;;;;3.84;94.90;98138.56;5113445;28;20050;-67
2023/01/19 02:41:22;;;;;;;1.90;1.77;;;;;;;3.81;94.47;98151.19;5113276;28;20051;-67
2023/01/19 02:43:53;;;;;;;2.70;2.25;;;;;;;3.83;94.79;98153.72;5113384;28;20135;-67
2023/01/19 02:46:22;;;;;;;3.05;2.58;;;;;;;3.82;94.74;98152.88;5115593;28;20040;-67
2023/01/19 02:48:51;;;;;;;0.85;0.85;;;;;;;3.80;94.33;98159.59;5116942;28;20046;-67
2023/01/19 02:51:24;;;;;;;2.05;1.65;;;;;;;3.79;94.58;98162.13;5116824;27;20052;-67
2023/01/19 02:54:17;;;;;;;2.88;1.77;;;;;;;3.82;94.60;98155.38;5116938;28;20130;-67
2023/01/19 02:57:00;;;;;;;5.35;4.85;;;;;;;3.83;94.94;98147.00;5117149;28;20051;-66
2023/01/19 02:59:40;;;;;;;2.20;2.03;;;;;;;3.83;94.84;98159.63;5116799;28;20048;-67
2023/01/19 03:02:23;;;;;;;6.40;3.90;;;;;;;3.84;95.07;98163.78;5116693;28;20048;-66
2023/01/19 03:05:08;;;;;;;2.25;2.05;;;;;;;3.83;94.60;98164.66;5116703;28;20056;-66
2023/01/19 03:07:51;;;;;;;4.88;2.70;;;;;;;3.82;94.58;98157.91;5116993;28;20044;-66
2023/01/19 03:10:30;;;;;;;3.42;2.55;;;;;;;3.86;94.45;98154.53;5116664;28;20511;-66
2023/01/19 03:13:04;;;;;;;2.90;2.70;;;;;;;3.89;94.90;98143.63;5116612;28;20043;-66
2023/01/19 03:15:41;;;;;;;7.32;3.25;;;;;;;3.85;95.19;98127.66;5116507;28;20071;-67
2023/01/19 03:18:14;;;;;;;3.03;2.80;;;;;;;3.84;95.21;98130.19;5116498;28;20047;-66
2023/01/19 03:20:45;;;;;;;3.00;2.78;;;;;;;3.86;94.86;98139.41;5116632;28;20048;-66
2023/01/19 03:23:15;;;;;;;0.77;0.77;;;;;;;3.84;95.26;98146.13;5116801;28;20067;-66
2023/01/19 03:25:49;;;;;;;3.60;3.30;;;;;;;3.85;94.52;98157.94;5116676;27;20116;-66
2023/01/19 03:28:22;;;;;;;14.38;3.75;;;;;;;3.85;95.04;98178.09;5117112;28;20382;-66
2023/01/19 03:30:57;;;;;;;1.35;1.27;;;;;;;3.86;94.82;98181.47;5116244;28;20536;-66
2023/01/19 03:33:30;;;;;;;3.83;1.02;;;;;;;3.87;94.86;98171.38;5116181;28;20059;-66
2023/01/19 03:36:04;;;;;;;2.78;2.58;;;;;;;3.87;95.20;98176.44;5116448;27;20051;-66
2023/01/19 03:38:37;;;;;;;3.38;3.10;;;;;;;3.86;94.86;98173.91;5116068;28;20485;-66
2023/01/19 03:41:14;;;;;;;1.50;1.40;;;;;;;3.87;94.95;98181.47;5116111;28;20516;-66
2023/01/19 03:43:44;;;;;;;2.35;2.17;;;;;;;3.88;94.92;98178.13;5115993;28;20047;-66
2023/01/19 03:46:16;;;;;;;4.90;3.55;;;;;;;3.90;95.39;98196.63;5115946;28;20055;-66
2023/01/19 03:48:45;;;;;;;2.03;1.92;;;;;;;3.90;95.32;98191.56;5115868;28;20043;-66
2023/01/19 03:51:16;;;;;;;2.35;2.15;;;;;;;3.87;94.78;98186.53;5115802;28;20051;-66
2023/01/19 03:53:45;;;;;;;2.53;2.10;;;;;;;3.84;94.90;98186.50;5115769;28;20048;-66
2023/01/19 03:56:22;;;;;;;1.27;1.17;;;;;;;3.87;95.06;98185.66;5115835;27;20067;-66
2023/01/19 03:58:52;;;;;;;2.05;1.23;;;;;;;3.89;95.36;98179.78;5115653;28;20054;-66
2023/01/19 04:01:23;;;;;;;2.50;2.33;;;;;;;3.88;95.06;98179.78;5115505;28;20074;-66
2023/01/19 04:03:53;;;;;;;2.80;2.58;;;;;;;3.86;95.13;98174.72;5115785;28;20048;-66
2023/01/19 04:06:22;;;;;;;1.35;1.25;;;;;;;3.85;94.85;98168.03;5115761;28;20051;-66
2023/01/19 04:08:51;;;;;;;2.03;1.90;;;;;;;3.83;94.94;98174.75;5115445;28;20036;-66
2023/01/19 04:11:22;;;;;;;2.35;2.17;;;;;;;3.87;94.92;98163.81;5115106;28;20053;-66
2023/01/19 04:13:51;;;;;;;1.00;1.00;;;;;;;3.89;94.82;98164.66;5115331;28;20047;-66
2023/01/19 04:16:20;;;;;;;2.87;2.67;;;;;;;3.91;95.12;98152.06;5115587;28;20040;-65
2023/01/19 04:18:51;;;;;;;2.05;1.55;;;;;;;3.92;95.44;98153.72;5115228;28;20055;-66
2023/01/19 04:21:20;;;;;;;2.72;1.98;;;;;;;3.91;95.29;98152.88;5115206;28;20504;-66
2023/01/19 04:23:49;;;;;;;1.35;1.25;;;;;;;3.90;95.12;98150.34;5114993;28;20196;-66
2023/01/19 04:26:18;;;;;;;2.67;1.77;;;;;;;3.89;95.08;98144.47;5115067;28;20048;-66
2023/01/19 04:28:48;;;;;;;1.17;1.10;;;;;;;3.90;95.25;98143.63;5115380;28;20118;-65
2023/01/19 04:31:18;;;;;;;3.08;2.88;;;;;;;3.89;95.06;98129.31;5114997;28;20287;-66
2023/01/19 04:33:47;;;;;;;1.63;1.52;;;;;;;3.90;95.43;98118.41;5114937;28;20043;-66
2023/01/19 04:36:15;;;;;;;2.47;2.25;;;;;;;3.90;95.06;98115.88;5114837;28;20032;-66
2023/01/19 04:38:45;;;;;;;1.73;0.93;;;;;;;3.90;95.29;98125.97;5114833;28;20071;-66
2023/01/19 04:41:13;;;;;;;;;;;;;;;3.91;95.40;98127.63;5115225;28;20040;-66
2023/01/19 04:43:42;;;;;;;4.65;1.75;;;;;;;3.91;95.50;98117.53;5114666;28;19919;-66
2023/01/19 04:46:12;;;;;;;1.17;1.07;;;;;;;3.90;95.22;98120.94;5114605;28;20493;-66
2023/01/19 04:48:41;;;;;;;7.38;4.13;;;;;;;3.90;95.22;98120.06;5114702;28;20047;-66
2023/01/19 04:51:10;;;;;;;4.07;2.33;;;;;;;3.94;94.98;98127.66;5114600;28;20055;-66
2023/01/19 04:53:39;;;;;;;2.17;2.07;;;;;;;3.94;94.81;98124.28;5114865;28;20134;-66
2023/01/19 04:56:08;;;;;;;3.70;2.30;;;;;;;3.95;95.22;98126.81;5114516;28;20516;-66
2023/01/19 04:58:37;;;;;;;1.63;1.53;;;;;;;3.94;95.34;98127.66;5114497;28;20123;-66
2023/01/19 05:01:08;;;;;;;1.77;1.67;;;;;;;3.96;94.94;98131.00;5114554;28;20036;-66
2023/01/19 05:03:39;;;;;;;1.15;1.15;;;;;;;3.98;95.13;98136.88;5114981;28;20043;-67
2023/01/19 05:06:08;;;;;;;2.05;1.85;;;;;;;3.97;95.30;98125.13;5114348;28;20063;-66
2023/01/19 05:08:36;;;;;;;0.88;0.88;;;;;;;4.00;95.34;98116.72;5113597;28;20066;-66
2023/01/19 05:11:05;;;;;;;1.70;1.20;;;;;;;4.00;94.52;98102.44;5114377;28;20064;-66
2023/01/19 05:13:34;;;;;;;;;;;;;;;4.02;94.82;98095.69;5114705;28;20043;-66
2023/01/19 05:16:05;;;;;;;0.40;0.40;;;;;;;4.02;94.85;98097.38;5114483;28;20334;-66
2023/01/19 05:18:35;;;;;;;1.13;1.00;;;;;;;4.03;94.53;98102.41;5114277;28;20483;-66
2023/01/19 05:21:07;;;;;;;1.80;1.63;;;;;;;4.05;94.56;98090.63;5114242;28;20051;-67
2023/01/19 05:23:36;;;;;;;4.28;2.13;;;;;;;4.07;94.52;98094.00;5114387;28;20040;-66
2023/01/19 05:26:05;;;;;;;1.17;1.10;;;;;;;4.09;94.72;98096.53;5114105;28;20039;-66
2023/01/19 05:28:37;;;;;;;1.38;1.10;;;;;;;4.06;94.26;98087.25;5114126;28;20052;-67
2023/01/19 05:31:06;;;;;;;1.90;1.17;;;;;;;4.05;94.20;98075.47;5114087;28;20040;-67
2023/01/19 05:33:35;;;;;;;1.48;1.38;;;;;;;4.03;94.07;98066.25;5114056;28;20048;-67
2023/01/19 05:36:04;;;;;;;1.47;1.37;;;;;;;4.06;93.61;98081.38;5113909;28;20039;-66
2023/01/19 05:38:34;;;;;;;1.77;1.67;;;;;;;4.05;93.98;98090.63;5113846;28;20047;-66
2023/01/19 05:41:03;;;;;;;1.70;1.60;;;;;;;4.04;93.61;98096.53;5114261;28;20401;-66
2023/01/19 05:43:32;;;;;;;7.37;3.23;;;;;;;4.04;93.74;98104.09;5114168;28;20044;-67
2023/01/19 05:46:03;;;;;;;1.45;1.35;;;;;;;4.04;93.31;98094.00;5114217;28;20067;-67
2023/01/19 05:48:32;;;;;;;3.78;3.47;;;;;;;4.04;93.18;98099.06;5114014;28;20131;-67
2023/01/19 05:51:01;;;;;;;1.98;1.83;;;;;;;4.05;93.23;98090.63;5114125;28;20044;-66
2023/01/19 05:53:30;;;;;;;2.90;2.70;;;;;;;4.05;92.91;98105.75;5114427;28;20074;-67
2023/01/19 05:56:02;;;;;;;0.98;0.98;;;;;;;4.05;93.30;98095.66;5114397;28;20386;-68
2023/01/19 05:58:31;;;;;;;1.95;1.75;;;;;;;4.04;92.63;98109.16;5114054;28;20043;-67
2023/01/19 06:01:04;;;;;;;2.40;2.20;;;;;;;4.05;93.01;98130.19;5113783;28;20127;-66
2023/01/19 06:03:33;;;;;;;1.42;1.33;;;;;;;4.03;92.73;98127.63;5114433;28;20465;-67
2023/01/19 06:06:02;;;;;;;3.92;2.83;;;;;;;4.06;92.78;98131.84;5114254;28;20122;-66
2023/01/19 06:08:31;;;;;;;1.88;1.35;;;;;;;4.05;92.45;98128.47;5113627;28;20039;-67
2023/01/19 06:11:01;;;;;;;1.17;1.07;;;;;;;4.05;92.56;98130.19;5113559;28;20047;-67
2023/01/19 06:13:30;;;;;;;1.02;1.02;;;;;;;4.04;92.32;98124.28;5113873;28;20054;-67
2023/01/19 06:15:59;;;;;;;1.53;1.43;;;;;;;4.04;92.42;98121.75;5113933;28;20063;-67
2023/01/19 06:18:29;;;;;;;0.60;0.60;;;;;;;4.05;92.49;98133.53;5113640;28;20055;-67
2023/01/19 06:20:58;;;;;;;1.58;1.48;;;;;;;4.05;92.57;98143.63;5116569;28;20043;-67
2023/01/19 06:23:29;;;;;;;2.78;2.58;;;;;;;4.05;91.56;98150.38;5117644;28;20035;-67
2023/01/19 06:25:58;;;;;;;1.42;1.33;;;;;;;4.06;92.31;98147.84;5117693;28;20447;-67
2023/01/19 06:28:28;;;;;;;0.93;0.93;;;;;;;4.07;91.99;98147.00;5117750;28;20040;-67
2023/01/19 06:30:58;;;;;;;0.73;0.73;;;;;;;4.10;91.83;98142.81;5117280;28;20822;-67
2023/01/19 06:33:27;;;;;;;0.85;0.85;;;;;;;4.10;92.02;98128.50;5117319;28;20043;-68
2023/01/19 06:35:56;;;;;;;0.40;0.40;;;;;;;4.10;91.71;98113.34;5117181;28;20074;-67
2023/01/19 06:38:25;;;;;;;2.80;1.85;;;;;;;4.11;91.15;98107.44;5117199;28;20042;-67
2023/01/19 06:40:57;;;;;;;0.47;0.47;;;;;;;4.10;91.10;98094.84;5117164;28;20105;-67
2023/01/19 06:43:27;;;;;;;1.23;0.68;;;;;;;4.07;91.22;98088.97;5117316;28;20295;-67
2023/01/19 06:45:57;;;;;;;2.00;1.80;;;;;;;4.07;90.78;98073.81;5117416;28;20073;-67
2023/01/19 06:48:25;;;;;;;0.50;0.50;;;;;;;4.08;90.85;98090.63;5116907;28;20038;-67
2023/01/19 06:50:54;;;;;;;1.33;1.25;;;;;;;4.08;90.96;98095.66;5116966;28;20067;-67
2023/01/19 06:53:28;;;;;;;0.98;0.95;;;;;;;4.10;90.62;98102.41;5116859;28;20059;-70
2023/01/19 06:56:01;;;;;;;0.50;0.50;;;;;;;4.10;90.88;98102.41;5116882;28;20055;-68
2023/01/19 06:58:34;;;;;;;1.60;1.50;;;;;;;4.10;90.93;98105.78;5116882;28;20040;-68
2023/01/19 07:01:03;;;;;;;0.57;0.57;;;;;;;4.11;90.31;98109.97;5116780;27;20056;-68
2023/01/19 07:03:34;;;;;;;0.88;0.80;;;;;;;4.12;90.60;98126.81;5117049;28;20032;-68
2023/01/19 07:06:05;;;;;;;1.00;1.00;;;;;;;4.11;89.98;98134.38;5116620;28;20056;-68
2023/01/19 07:08:34;;;;;;;1.25;1.15;;;;;;;4.14;90.01;98144.47;5116681;28;20040;-68
2023/01/19 07:11:06;;;;;;;0.90;0.88;;;;;;;4.13;90.42;98147.84;5117071;28;20142;-68
2023/01/19 07:13:56;;;;;;;1.95;1.85;;;;;;;4.11;90.06;98144.47;5116429;28;20048;-67
2023/01/19 07:16:25;;;;;;;0.63;0.63;;;;;;;4.14;89.84;98141.94;5116819;28;20058;-68
2023/01/19 07:18:54;;;;;;;1.53;1.43;;;;;;;4.15;89.73;98151.22;5116327;28;20047;-68
2023/01/19 07:21:23;;;;;;;1.83;1.35;;;;;;;4.14;89.59;98154.56;5116955;28;20040;-68
2023/01/19 07:23:53;;;;;;;0.88;0.88;;;;;;;4.15;89.81;98156.25;5116425;28;20040;-68
2023/01/19 07:26:23;;;;;;;0.40;0.40;;;;;;;4.17;89.38;98159.63;5116837;28;20082;-68
2023/01/19 07:28:52;;;;;;;1.65;1.25;;;;;;;4.19;89.35;98163.00;5116175;28;20051;-68
2023/01/19 07:31:22;;;;;;;5.13;1.60;;;;;;;4.14;89.31;98149.53;5115919;28;20075;-67
2023/01/19 07:33:52;;;;;;;0.60;0.60;;;;;;;4.21;88.94;98159.63;5116492;28;20503;-68
2023/01/19 07:36:21;;;;;;;1.58;1.48;;;;;;;4.24;88.96;98166.34;5116031;28;20035;-68
2023/01/19 07:38:49;;;;;;;1.50;1.40;;;;;;;4.25;88.65;98173.09;5116393;28;20058;-68
2023/01/19 07:41:18;;;;;;;1.70;1.60;;;;;;;4.27;88.93;98178.97;5115845;28;20044;-68
2023/01/19 07:43:50;;;;;;;1.77;1.52;;;;;;;4.27;88.76;98182.31;5115880;28;20096;-68
2023/01/19 07:46:20;;;;;;;0.60;0.60;;;;;;;4.27;88.92;98189.09;5116182;28;20501;-68
2023/01/19 07:48:50;;;;;;;1.00;0.98;;;;;;;4.29;88.76;98179.81;5116081;28;20431;-68
2023/01/19 07:51:18;;;;;;;0.57;0.57;;;;;;;4.29;88.29;98169.72;5115791;28;20040;-68
2023/01/19 07:53:50;;;;;;;1.98;1.85;;;;;;;4.29;87.87;98174.78;5115682;28;20096;-67
2023/01/19 07:56:19;;;;;;;0.50;0.50;;;;;;;4.33;88.09;98176.44;5113062;28;20054;-68
2023/01/19 07:58:49;;;;;;;0.90;0.90;;;;;;;4.35;87.85;98185.69;5114533;27;20052;-69
2023/01/19 08:01:18;;;;;;;1.55;1.00;;;;;;;4.36;87.72;98181.50;5103957;28;20280;-67
2023/01/19 08:03:49;;;;;;;0.47;0.47;;;;;;;4.35;87.38;98190.75;5103608;28;20123;-68
2023/01/19 08:06:22;;;;;;;2.63;1.13;;;;;;;4.35;87.56;98189.91;5095067;28;20044;-68
2023/01/19 08:08:51;;;;;;;1.55;1.45;;;;;;;4.34;87.05;98188.25;5100074;27;20044;-68
2023/01/19 08:11:20;;;;;;;1.73;1.08;;;;;;;4.34;87.41;98186.56;5111782;27;20055;-68
2023/01/19 08:13:49;;;;;;;2.10;1.65;;;;;;;4.35;86.98;98194.94;5102422;28;20048;-68
2023/01/19 08:16:18;;;;;;;1.20;1.10;;;;;;;4.36;86.97;98196.66;5115576;28;20054;-68
2023/01/19 08:18:47;;;;;;;1.92;1.83;;;;;;;4.37;87.07;98203.38;5115235;28;20035;-68
2023/01/19 08:21:17;;;;;;;1.52;1.25;;;;;;;4.37;87.03;98213.47;5105302;28;20040;-68
2023/01/19 08:23:52;;;;;;;2.20;0.93;;;;;;;4.37;86.88;98228.63;5112461;28;20093;-68
2023/01/19 08:26:26;;;;;;;0.88;0.88;;;;;;;4.35;86.97;98223.59;5114646;28;20123;-68
2023/01/19 08:28:56;;;;;;;2.53;2.33;;;;;;;4.33;86.33;98216.84;5109262;28;20126;-68
2023/01/19 08:31:25;;;;;;;1.70;1.60;;;;;;;4.34;86.66;98209.28;5111775;28;20044;-68
2023/01/19 08:33:54;;;;;;;;;;;;;;;4.34;86.35;98203.38;5115276;28;20093;-67
2023/01/19 08:36:24;;;;;;;1.20;1.10;;;;;;;4.32;86.49;98200.84;5114915;28;19920;-68
2023/01/19 08:38:53;;;;;;;1.50;1.40;;;;;;;4.35;86.38;98200.84;5112517;28;20047;-69
2023/01/19 08:41:22;;;;;;;0.80;0.77;;;;;;;4.36;86.47;98196.66;5095191;28;20044;-68
2023/01/19 08:43:51;;;;;;;2.50;2.30;;;;;;;4.36;86.34;98191.59;5094788;28;20044;-68
2023/01/19 08:46:20;;;;;;;1.30;0.95;;;;;;;4.33;86.35;98192.44;5094457;28;20138;-68
2023/01/19 08:48:49;;;;;;;;;;;;;;;4.33;86.28;98187.41;5095319;28;20085;-68
2023/01/19 08:51:18;;;;;;;1.65;1.55;;;;;;;4.32;86.01;98183.16;5094420;28;19926;-68
2023/01/19 08:53:49;;;;;;;1.85;1.75;;;;;;;4.32;85.74;98184.88;5104097;28;20036;-70
2023/01/19 08:56:18;;;;;;;0.85;0.85;;;;;;;4.25;86.29;98168.06;5096200;28;20040;-69
2023/01/19 08:58:48;;;;;;;1.55;1.45;;;;;;;4.31;86.13;98173.09;5094022;28;20055;-68
2023/01/19 09:01:36;;;;;;;2.05;1.52;;;;;;;4.29;86.16;98174.78;5094166;28;20485;-68
2023/01/19 09:04:06;;;;;;;0.60;0.60;;;;;;;4.30;85.67;98173.91;5093409;28;20044;-68
2023/01/19 09:06:34;;;;;;;1.77;1.63;;;;;;;4.26;85.95;98174.75;5093990;28;20036;-69
2023/01/19 09:09:05;;;;;;;0.88;0.88;;;;;;;4.33;85.56;98182.34;5093885;28;20126;-69
2023/01/19 09:11:35;;;;;;;0.60;0.60;;;;;;;4.32;85.54;98169.72;5093914;28;20181;-68
2023/01/19 09:14:04;;;;;;;1.42;1.33;;;;;;;4.34;85.74;98163.00;5093879;28;20040;-68
2023/01/19 09:16:33;;;;;;;0.57;0.57;;;;;;;4.34;85.48;98168.03;5094148;28;20139;-68
2023/01/19 09:19:02;;;;;;;0.50;0.50;;;;;;;4.37;85.51;98168.00;5093888;28;20057;-68
2023/01/19 09:21:30;;;;;;;0.68;0.68;;;;;;;4.40;85.69;98173.91;5093819;28;20036;-68
2023/01/19 09:23:59;;;;;;;0.80;0.80;;;;;;;4.42;85.78;98171.38;5094091;28;20113;-68
2023/01/19 09:26:30;;;;;;;1.40;1.30;;;;;;;4.44;85.70;98174.78;5093472;28;20040;-68
2023/01/19 09:29:01;;;;;;;5.68;2.80;;;;;;;4.47;85.34;98184.84;5094018;28;20104;-68
2023/01/19 09:31:29;;;;;;;0.50;0.50;;;;;;;4.50;85.35;98194.97;5093482;28;20109;-68
2023/01/19 09:33:58;;;;;;;0.65;0.65;;;;;;;4.51;85.26;98194.94;5109659;28;20035;-68
2023/01/19 09:36:27;;;;;;;2.90;1.47;;;;;;;4.49;85.11;98190.72;5099961;28;20040;-69
2023/01/19 09:38:56;;;;;;;2.33;1.30;;;;;;;4.52;85.15;98194.13;5093432;28;20497;-68
2023/01/19 09:41:25;;;;;;;2.25;1.77;;;;;;;4.56;84.55;98200.00;5093504;28;20042;-68
2023/01/19 09:43:59;;;;;;;1.52;1.42;;;;;;;4.56;84.67;98190.72;5093826;28;20118;-68
2023/01/19 09:46:35;;;;;;;1.70;1.60;;;;;;;4.59;84.63;98192.41;5093721;28;20540;-69
2023/01/19 09:49:13;;;;;;;0.40;0.40;;;;;;;4.60;84.36;98186.53;5097848;28;20054;-69
2023/01/19 09:51:45;;;;;;;0.98;0.98;;;;;;;4.58;84.44;98183.16;5108770;28;20043;-69
2023/01/19 09:54:16;;;;;;;11.07;3.22;;;;;;;4.56;84.24;98179.78;5113265;28;20050;-68
2023/01/19 09:56:47;;;;;;;0.95;0.93;;;;;;;4.58;83.82;98193.28;5117528;27;20067;-68
2023/01/19 09:59:23;;;;;;;0.88;0.88;;;;;;;4.59;83.80;98184.84;5115152;28;20058;-68
2023/01/19 10:02:07;;;;;;;3.25;0.95;;;;;;;4.61;83.86;98178.94;5117676;28;20381;-69
2023/01/19 10:04:41;;;;;;;0.90;0.90;;;;;;;4.61;83.89;98183.16;5117241;28;20487;-69
2023/01/19 10:07:16;;;;;;;0.75;0.75;;;;;;;4.61;83.70;98178.09;5117116;28;20047;-69
2023/01/19 10:09:57;;;;;;;1.17;1.08;;;;;;;4.62;83.57;98183.16;5115266;28;20093;-69
2023/01/19 10:12:39;;;;;;;1.30;1.20;;;;;;;4.62;83.56;98184.84;5109973;28;20062;-68
2023/01/19 10:15:18;;;;;;;7.47;1.77;;;;;;;4.57;83.30;98194.09;5112857;28;20122;-68
2023/01/19 10:17:58;;;;;;;1.80;1.70;;;;;;;4.65;83.37;98205.06;5115529;28;20063;-68
2023/01/19 10:20:35;;;;;;;1.50;1.40;;;;;;;4.68;83.60;98199.97;5115523;28;20469;-69
2023/01/19 10:23:17;;;;;;;0.80;0.80;;;;;;;4.66;83.29;98202.50;5114987;28;20081;-70
2023/01/19 10:25:47;;;;;;;1.00;1.00;;;;;;;4.64;83.10;98188.19;5114980;28;20062;-69
2023/01/19 10:28:19;;;;;;;2.00;1.85;;;;;;;4.63;83.53;98186.53;5116921;28;20039;-69
2023/01/19 10:30:51;;;;;;;3.53;1.23;;;;;;;4.65;83.32;98187.38;5117096;28;20050;-69
2023/01/19 10:33:20;;;;;;;1.48;1.38;;;;;;;4.65;83.51;98185.66;5114197;28;20040;-69
2023/01/19 10:35:49;;;;;;;1.17;1.07;;;;;;;4.65;83.49;98177.25;5116933;28;20035;-69
2023/01/19 10:38:20;;;;;;;0.77;0.77;;;;;;;4.68;83.45;98172.19;5116725;28;20039;-69
2023/01/19 10:40:56;;;;;;;0.95;0.95;;;;;;;4.72;83.16;98172.19;5115369;28;20134;-69
2023/01/19 10:43:42;;;;;;;0.50;0.50;;;;;;;4.72;83.17;98166.31;5117433;28;20085;-69
2023/01/19 10:46:26;;;;;;;1.27;1.23;;;;;;;4.73;83.38;98176.41;5112220;28;20035;-69
2023/01/19 10:48:55;;;;;;;0.80;0.80;;;;;;;4.71;83.10;98169.66;5116285;28;20131;-69
2023/01/19 10:51:24;;;;;;;7.00;2.70;;;;;;;4.65;83.03;98157.88;5116677;28;20040;-69
2023/01/19 10:53:57;;;;;;;1.30;1.20;;;;;;;4.74;82.85;98164.59;5113778;28;20035;-69
2023/01/19 10:56:31;;;;;;;1.40;1.30;;;;;;;4.74;82.88;98167.13;5116537;28;20299;-69
2023/01/19 10:59:02;;;;;;;2.00;1.65;;;;;;;4.75;82.60;98172.19;5114143;28;20522;-69
2023/01/19 11:01:35;;;;;;;0.90;0.90;;;;;;;4.77;82.60;98172.19;5113213;28;20035;-68
2023/01/19 11:04:21;;;;;;;1.23;1.13;;;;;;;4.80;82.65;98179.75;5116744;27;20122;-70
2023/01/19 11:06:50;;;;;;;0.35;0.35;;;;;;;4.82;82.38;98172.19;5115286;28;20493;-69
2023/01/19 11:09:22;;;;;;;0.40;0.40;;;;;;;4.66;82.65;98138.50;5116650;27;20035;-69
2023/01/19 11:11:54;;;;;;;2.10;1.90;;;;;;;4.85;81.98;98167.94;5116371;28;20056;-69
2023/01/19 11:14:26;;;;;;;2.25;1.85;;;;;;;4.88;82.42;98154.44;5108712;28;20397;-69
2023/01/19 11:16:59;;;;;;;2.35;2.15;;;;;;;4.88;82.05;98162.03;5110215;28;20043;-70
2023/01/19 11:19:31;;;;;;;1.48;1.38;;;;;;;4.88;81.94;98162.03;5095647;28;20545;-69
2023/01/19 11:22:20;;;;;;;1.10;1.10;;;;;;;4.88;81.66;98167.09;5095865;28;20539;-69
2023/01/19 11:24:49;;;;;;;1.92;1.83;;;;;;;4.86;81.71;98168.78;5095880;28;20071;-69
2023/01/19 11:27:20;;;;;;;2.85;1.75;;;;;;;4.84;81.79;98170.47;5095886;28;20041;-70
2023/01/19 11:29:54;;;;;;;2.10;1.95;;;;;;;4.77;81.55;98158.72;5095782;28;20044;-69
2023/01/19 11:32:28;;;;;;;3.63;3.30;;;;;;;4.82;81.52;98167.97;5095825;28;20063;-69
2023/01/19 11:34:58;;;;;;;2.25;1.70;;;;;;;4.81;81.12;98166.28;5095631;28;20048;-68
2023/01/19 11:37:30;;;;;;;1.43;1.33;;;;;;;4.78;80.93;98168.81;5095713;28;20557;-68
2023/01/19 11:40:01;;;;;;;1.08;1.00;;;;;;;4.82;81.14;98162.91;5095872;28;20044;-69
2023/01/19 11:42:35;;;;;;;1.77;1.65;;;;;;;4.82;80.98;98167.97;5094475;28;20500;-69
2023/01/19 11:45:12;;;;;;;1.30;1.05;;;;;;;4.86;80.80;98174.69;5095551;28;20060;-68
2023/01/19 11:47:44;;;;;;;8.38;3.65;;;;;;;4.88;80.70;98185.63;5095683;28;20055;-68
2023/01/19 11:50:30;;;;;;;0.55;0.55;;;;;;;4.91;80.58;98183.09;5095515;28;20048;-68
2023/01/19 11:53:04;;;;;;;1.40;1.30;;;;;;;4.95;80.24;98172.13;5095417;28;20036;-68
2023/01/19 11:55:39;;;;;;;1.63;1.10;;;;;;;4.97;79.92;98175.50;5094674;28;20119;-67
2023/01/19 11:58:15;;;;;;;1.00;1.00;;;;;;;4.96;79.71;98185.63;5095505;28;20047;-71
2023/01/19 12:00:50;;;;;;;1.48;1.38;;;;;;;4.79;79.46;98162.91;5105017;28;20043;-69
2023/01/19 12:03:25;;;;;;;2.65;1.60;;;;;;;4.92;79.15;98184.75;5115689;27;20558;-68
2023/01/19 12:06:01;;;;;;;1.48;1.38;;;;;;;4.92;78.99;98184.75;5115793;28;20073;-71
2023/01/19 12:08:35;;;;;;;0.88;0.88;;;;;;;4.91;79.16;98177.19;5113393;28;20440;-69
2023/01/19 12:11:06;;;;;;;1.33;1.23;;;;;;;4.89;78.65;98177.22;5098716;28;20484;-70